Time;durP1;ratioP1;P1;durP2;ratioP2;P2;SDS_P1;SDS_P2;PMS_P1;PMS_P2;Temp;Humidity;BMP_temperature;BMP_pressure;BME280_temperature;BME280_humidity;BME280_pressure;Samples;Min_cycle;Max_cycle;Signal;HPM_P1;HPM_P2
2023/02/24 00:00:37;;;;;;;4.80;3.57;;;9.90;99.90;;;;;;5051501;28;20452;-73
2023/02/24 00:03:09;;;;;;;4.00;3.40;;;9.90;99.90;;;;;;5048673;28;20473;-74
2023/02/24 00:05:43;;;;;;;3.50;3.20;;;9.90;99.90;;;;;;5044936;28;20467;-75
2023/02/24 00:08:11;;;;;;;4.37;3.10;;;9.90;99.90;;;;;;5029165;28;21081;-74
2023/02/24 00:10:40;;;;;;;4.27;3.63;;;9.80;99.90;;;;;;5039239;28;20441;-75
2023/02/24 00:13:10;;;;;;;4.07;3.67;;;9.90;99.90;;;;;;5028789;28;20481;-73
2023/02/24 00:15:40;;;;;;;5.60;3.97;;;9.90;99.90;;;;;;5056989;28;20476;-74
2023/02/24 00:18:09;;;;;;;3.63;3.33;;;9.80;99.90;;;;;;5062321;28;20480;-74
2023/02/24 00:20:37;;;;;;;4.30;3.90;;;9.80;99.90;;;;;;5044603;28;20445;-74
2023/02/24 00:23:08;;;;;;;4.53;3.33;;;9.80;99.90;;;;;;5042957;28;21732;-74
2023/02/24 00:25:36;;;;;;;4.27;3.83;;;9.80;99.90;;;;;;5046456;28;20475;-74
2023/02/24 00:28:05;;;;;;;3.93;3.53;;;9.80;99.90;;;;;;5043747;28;20441;-74
2023/02/24 00:30:33;;;;;;;3.90;3.23;;;9.80;99.90;;;;;;5163502;22;20487;-68
2023/02/24 00:33:05;;;;;;;5.33;3.23;;;9.80;99.90;;;;;;5063351;28;20470;-69
2023/02/24 00:35:33;;;;;;;4.67;3.60;;;9.80;99.90;;;;;;5040762;28;21005;-68
2023/02/24 00:38:02;;;;;;;3.80;3.30;;;9.80;99.90;;;;;;5047419;28;20889;-68
2023/02/24 00:40:30;;;;;;;5.17;3.63;;;9.80;99.90;;;;;;5043277;28;20582;-68
2023/02/24 00:43:00;;;;;;;4.80;4.00;;;9.80;99.90;;;;;;5044836;28;20517;-70
2023/02/24 00:45:29;;;;;;;4.00;3.00;;;9.80;99.90;;;;;;5044879;28;20865;-68
2023/02/24 00:47:58;;;;;;;4.00;3.40;;;9.80;99.90;;;;;;5056333;28;20463;-67
2023/02/24 00:50:28;;;;;;;3.83;2.90;;;9.80;99.90;;;;;;5043205;28;20841;-69
2023/02/24 00:52:56;;;;;;;4.80;4.00;;;9.80;99.90;;;;;;5042116;28;20889;-69
2023/02/24 00:55:26;;;;;;;3.70;3.30;;;9.80;99.90;;;;;;5043708;28;20440;-69
2023/02/24 00:57:55;;;;;;;4.00;3.43;;;9.80;99.90;;;;;;5062810;28;20962;-68
2023/02/24 01:00:23;;;;;;;4.13;3.37;;;9.80;99.90;;;;;;5046523;28;20468;-68
2023/02/24 01:02:51;;;;;;;4.30;3.80;;;9.80;99.90;;;;;;5053149;28;21059;-69
2023/02/24 01:05:20;;;;;;;4.03;3.63;;;9.80;99.90;;;;;;5046056;28;20540;-70
2023/02/24 01:07:50;;;;;;;3.57;3.27;;;9.80;99.90;;;;;;5045502;28;20498;-68
2023/02/24 01:10:21;;;;;;;5.23;4.30;;;9.80;99.90;;;;;;5047833;28;20469;-67
2023/02/24 01:12:48;;;;;;;4.40;3.30;;;9.80;99.90;;;;;;5042348;28;20889;-69
2023/02/24 01:15:19;;;;;;;4.17;3.30;;;9.80;99.90;;;;;;5039146;28;20449;-70
2023/02/24 01:17:48;;;;;;;3.90;3.50;;;9.80;99.90;;;;;;5058522;28;20801;-69
2023/02/24 01:20:17;;;;;;;3.80;2.93;;;9.80;99.90;;;;;;5044876;28;20507;-68
2023/02/24 01:22:48;;;;;;;4.03;3.47;;;9.80;99.90;;;;;;5061590;28;20535;-69
2023/02/24 01:25:20;;;;;;;3.10;2.80;;;9.80;99.90;;;;;;5049059;28;20448;-68
2023/02/24 01:27:49;;;;;;;3.07;2.77;;;9.80;99.90;;;;;;5045374;28;20461;-68
2023/02/24 01:30:17;;;;;;;3.50;3.20;;;9.80;99.90;;;;;;5047686;28;20475;-70
2023/02/24 01:32:46;;;;;;;3.20;2.50;;;9.80;99.90;;;;;;5046216;28;20943;-69
2023/02/24 01:35:16;;;;;;;3.03;2.73;;;9.80;99.90;;;;;;5044243;28;20898;-68
2023/02/24 01:37:45;;;;;;;2.60;2.40;;;9.80;99.90;;;;;;5049743;28;20439;-69
2023/02/24 01:40:19;;;;;;;3.80;3.50;;;9.80;99.90;;;;;;5043412;28;20583;-68
2023/02/24 01:42:50;;;;;;;3.97;3.33;;;9.80;99.90;;;;;;5045862;28;20818;-67
2023/02/24 01:45:27;;;;;;;4.00;3.07;;;9.80;99.90;;;;;;5044561;28;20485;-69
2023/02/24 01:48:00;;;;;;;2.53;2.33;;;9.80;99.90;;;;;;5047898;28;20524;-69
2023/02/24 01:50:29;;;;;;;3.60;3.30;;;9.80;99.90;;;;;;5045412;28;20513;-69
2023/02/24 01:53:02;;;;;;;3.30;2.73;;;9.80;99.90;;;;;;5042759;28;20837;-69
2023/02/24 01:55:36;;;;;;;4.17;3.77;;;9.80;99.90;;;;;;5046626;28;20497;-68
2023/02/24 01:58:10;;;;;;;2.67;2.43;;;9.80;99.90;;;;;;5033226;28;20482;-68
2023/02/24 02:00:45;;;;;;;2.90;2.70;;;9.80;99.90;;;;;;5064566;28;20440;-68
2023/02/24 02:03:22;;;;;;;3.00;2.70;;;9.70;99.90;;;;;;5035330;28;20566;-70
2023/02/24 02:05:54;;;;;;;5.60;3.37;;;9.70;99.90;;;;;;5036779;28;21122;-68
2023/02/24 02:08:24;;;;;;;3.20;2.90;;;9.80;99.90;;;;;;5045414;28;20476;-69
2023/02/24 02:10:57;;;;;;;3.83;2.93;;;9.70;99.90;;;;;;5041827;28;20992;-69
2023/02/24 02:13:29;;;;;;;4.17;2.97;;;9.70;99.90;;;;;;5041122;28;20529;-70
2023/02/24 02:16:13;;;;;;;3.23;2.93;;;9.70;99.90;;;;;;5046756;28;20550;-68
2023/02/24 02:18:55;;;;;;;2.30;2.07;;;9.70;99.90;;;;;;5063114;28;20511;-68
2023/02/24 02:21:47;;;;;;;2.90;2.70;;;9.70;99.90;;;;;;5058934;28;20465;-70
2023/02/24 02:24:26;;;;;;;3.77;2.67;;;9.70;99.90;;;;;;5067421;28;20486;-68
2023/02/24 02:27:33;;;;;;;3.57;3.20;;;9.70;99.90;;;;;;5044254;28;20568;-69
2023/02/24 02:30:36;;;;;;;3.23;2.93;;;9.70;99.90;;;;;;5047697;28;20563;-69
2023/02/24 02:33:26;;;;;;;3.03;2.73;;;9.70;99.90;;;;;;5062432;28;20999;-70
2023/02/24 02:36:06;;;;;;;3.40;2.70;;;9.70;99.90;;;;;;5038334;28;20556;-68
2023/02/24 02:38:38;;;;;;;2.50;2.30;;;9.70;99.90;;;;;;5047680;28;20522;-67
2023/02/24 02:41:13;;;;;;;2.53;2.30;;;9.70;99.90;;;;;;5032468;28;20515;-68
2023/02/24 02:43:48;;;;;;;3.50;2.80;;;9.70;99.90;;;;;;5065350;28;20479;-67
2023/02/24 02:46:33;;;;;;;3.17;2.40;;;9.70;99.90;;;;;;5068594;28;21060;-69
2023/02/24 02:49:12;;;;;;;2.40;2.20;;;9.70;99.90;;;;;;5041627;28;20493;-69
2023/02/24 02:51:50;;;;;;;3.30;3.00;;;9.70;99.90;;;;;;5060768;28;20527;-68
2023/02/24 02:54:27;;;;;;;2.37;2.17;;;9.70;99.90;;;;;;5040156;28;20596;-69
2023/02/24 02:57:01;;;;;;;2.63;2.43;;;9.70;99.90;;;;;;5047744;28;20469;-67
2023/02/24 02:59:33;;;;;;;3.17;2.87;;;9.70;99.90;;;;;;5046099;28;21105;-69
2023/02/24 03:02:11;;;;;;;3.40;2.50;;;9.70;99.90;;;;;;5044872;28;20444;-69
2023/02/24 03:04:45;;;;;;;3.10;2.80;;;9.70;99.90;;;;;;5050265;28;20479;-69
2023/02/24 03:07:16;;;;;;;2.63;2.43;;;9.70;99.90;;;;;;5045420;28;20556;-68
2023/02/24 03:09:50;;;;;;;4.83;2.90;;;9.70;99.90;;;;;;5051762;28;20880;-68
2023/02/24 03:12:22;;;;;;;4.53;2.20;;;9.70;99.90;;;;;;5048378;28;20480;-69
2023/02/24 03:14:57;;;;;;;3.00;2.70;;;9.70;99.90;;;;;;5047967;28;20502;-68
2023/02/24 03:17:29;;;;;;;4.13;2.57;;;9.70;99.90;;;;;;5043805;28;21010;-69
2023/02/24 03:20:15;;;;;;;3.13;2.80;;;9.70;99.90;;;;;;5047065;28;20518;-69
2023/02/24 03:22:50;;;;;;;3.03;2.50;;;9.70;99.90;;;;;;5044856;28;20952;-67
2023/02/24 03:25:24;;;;;;;2.90;2.70;;;9.70;99.90;;;;;;5051331;28;20914;-69
2023/02/24 03:27:57;;;;;;;2.40;2.13;;;9.70;99.90;;;;;;5039420;28;20452;-69
2023/02/24 03:30:35;;;;;;;3.90;3.13;;;9.70;99.90;;;;;;5059302;28;20482;-69
2023/02/24 03:33:09;;;;;;;3.00;2.47;;;9.70;99.90;;;;;;5047988;28;20828;-68
2023/02/24 03:35:40;;;;;;;2.60;2.00;;;9.70;99.90;;;;;;5061144;28;21079;-69
2023/02/24 03:38:12;;;;;;;3.23;2.27;;;9.70;99.90;;;;;;5048693;28;21137;-70
2023/02/24 03:40:42;;;;;;;2.80;2.10;;;9.70;99.90;;;;;;5049024;28;20441;-69
2023/02/24 03:43:21;;;;;;;2.20;2.00;;;9.70;99.90;;;;;;5047932;28;20567;-68
2023/02/24 03:45:50;;;;;;;2.87;2.57;;;9.60;99.90;;;;;;5047106;28;20482;-69
2023/02/24 03:48:19;;;;;;;2.23;2.00;;;9.60;99.90;;;;;;5048102;28;20508;-69
2023/02/24 03:50:48;;;;;;;3.40;2.30;;;9.70;99.90;;;;;;5049239;28;20457;-69
2023/02/24 03:53:50;;;;;;;2.87;2.43;;;9.60;99.90;;;;;;5063081;28;20535;-68
2023/02/24 03:56:29;;;;;;;2.53;2.23;;;9.60;99.90;;;;;;5050957;28;20534;-68
2023/02/24 03:59:11;;;;;;;2.60;1.80;;;9.60;99.90;;;;;;5050268;28;20847;-70
2023/02/24 04:01:50;;;;;;;3.70;2.00;;;9.60;99.90;;;;;;5049971;28;20442;-69
2023/02/24 04:04:28;;;;;;;2.63;2.30;;;9.60;99.90;;;;;;5047942;28;20469;-70
2023/02/24 04:07:40;;;;;;;2.03;1.83;;;9.60;99.90;;;;;;5061354;28;20836;-68
2023/02/24 04:10:16;;;;;;;3.50;2.27;;;9.60;99.90;;;;;;5048149;28;20486;-69
2023/02/24 04:12:52;;;;;;;2.70;2.50;;;9.60;99.90;;;;;;5046225;28;20899;-68
2023/02/24 04:15:27;;;;;;;2.50;2.30;;;9.60;99.90;;;;;;5049958;28;20453;-69
2023/02/24 04:18:01;;;;;;;2.40;2.13;;;9.60;99.90;;;;;;5042049;28;20436;-68
2023/02/24 04:20:38;;;;;;;2.43;1.80;;;9.60;99.90;;;;;;5046323;28;20454;-69
2023/02/24 04:23:13;;;;;;;3.07;2.23;;;9.60;99.90;;;;;;5037821;28;20994;-69
2023/02/24 04:25:46;;;;;;;2.40;2.20;;;9.60;99.90;;;;;;5059293;28;20465;-70
2023/02/24 04:28:17;;;;;;;1.90;1.60;;;9.60;99.90;;;;;;5044567;28;21042;-68
2023/02/24 04:30:49;;;;;;;2.90;2.60;;;9.60;99.90;;;;;;5041934;28;20472;-68
2023/02/24 04:33:19;;;;;;;2.50;2.30;;;9.60;99.90;;;;;;5043988;28;20477;-68
2023/02/24 04:35:50;;;;;;;2.67;2.40;;;9.60;99.90;;;;;;5046514;28;20470;-69
2023/02/24 04:38:19;;;;;;;2.57;1.77;;;9.60;99.90;;;;;;5039629;28;20470;-68
2023/02/24 04:40:50;;;;;;;2.43;2.03;;;9.60;99.90;;;;;;5047327;28;20442;-68
2023/02/24 04:43:19;;;;;;;2.03;1.83;;;9.60;99.90;;;;;;5045585;28;20479;-70
2023/02/24 04:45:47;;;;;;;4.70;2.03;;;9.60;99.90;;;;;;5048305;28;20455;-70
2023/02/24 04:48:15;;;;;;;4.50;2.37;;;9.60;99.90;;;;;;5047463;28;20555;-70
2023/02/24 04:50:44;;;;;;;2.93;2.10;;;9.60;99.90;;;;;;5048476;28;20453;-69
2023/02/24 04:53:14;;;;;;;2.10;1.70;;;9.60;99.90;;;;;;5043261;28;20505;-68
2023/02/24 04:55:47;;;;;;;2.77;2.10;;;9.50;99.90;;;;;;5055490;28;20464;-70
2023/02/24 04:58:20;;;;;;;1.77;1.67;;;9.60;99.90;;;;;;5044318;28;20493;-69
2023/02/24 05:00:51;;;;;;;3.87;1.97;;;9.60;99.90;;;;;;5046438;28;21098;-69
2023/02/24 05:03:21;;;;;;;1.83;1.67;;;9.60;99.90;;;;;;5030546;28;21087;-69
2023/02/24 05:05:51;;;;;;;2.83;1.93;;;9.60;99.90;;;;;;5050685;28;20511;-69
2023/02/24 05:08:20;;;;;;;2.30;2.10;;;9.60;99.90;;;;;;5042389;28;20477;-69
2023/02/24 05:10:49;;;;;;;2.10;1.80;;;9.60;99.90;;;;;;5046084;28;20517;-67
2023/02/24 05:13:25;;;;;;;3.70;2.13;;;9.60;99.90;;;;;;5059493;28;20558;-67
2023/02/24 05:15:55;;;;;;;3.07;1.77;;;9.50;99.90;;;;;;5064568;28;20467;-68
2023/02/24 05:18:24;;;;;;;2.10;1.90;;;9.50;99.90;;;;;;5043718;28;20473;-68
2023/02/24 05:23:43;;;;;;;1.70;1.40;;;9.50;99.90;;;;;;5045639;28;20483;-68
2023/02/24 05:26:15;;;;;;;2.17;1.97;;;9.50;99.90;;;;;;5047772;28;20874;-68
2023/02/24 05:28:47;;;;;;;2.60;2.10;;;9.50;99.90;;;;;;5034513;28;20478;-68
2023/02/24 05:31:18;;;;;;;1.77;1.50;;;9.50;99.90;;;;;;5044153;28;20479;-68
2023/02/24 05:33:52;;;;;;;2.70;1.60;;;9.50;99.90;;;;;;5059296;28;20485;-70
2023/02/24 05:36:21;;;;;;;1.57;1.37;;;9.50;99.90;;;;;;5044763;28;20452;-69
2023/02/24 05:38:54;;;;;;;2.23;1.80;;;9.50;99.90;;;;;;5045415;28;20472;-68
2023/02/24 05:41:31;;;;;;;2.40;1.73;;;9.50;99.90;;;;;;5054635;28;20504;-68
2023/02/24 05:44:03;;;;;;;2.67;1.77;;;9.50;99.90;;;;;;5059139;28;21028;-69
2023/02/24 05:46:33;;;;;;;2.93;1.60;;;9.50;99.90;;;;;;5040066;28;20704;-69
2023/02/24 05:49:07;;;;;;;3.70;1.67;;;9.50;99.90;;;;;;5046585;28;20514;-68
2023/02/24 05:51:38;;;;;;;2.50;1.87;;;9.50;99.90;;;;;;5066701;28;20461;-69
2023/02/24 05:54:09;;;;;;;2.00;1.60;;;9.50;99.90;;;;;;5048394;28;20473;-69
2023/02/24 05:56:39;;;;;;;2.43;1.60;;;9.50;99.90;;;;;;5050230;28;20571;-68
2023/02/24 05:59:10;;;;;;;1.80;1.70;;;9.50;99.90;;;;;;5050604;28;20496;-69
2023/02/24 06:01:41;;;;;;;2.77;1.70;;;9.50;99.90;;;;;;5045227;28;20472;-68
2023/02/24 06:04:19;;;;;;;5.27;2.27;;;9.50;99.90;;;;;;5049256;28;20485;-67
2023/02/24 06:06:51;;;;;;;4.80;1.90;;;9.50;99.90;;;;;;5039948;28;20512;-66
2023/02/24 06:09:22;;;;;;;2.43;2.23;;;9.50;99.90;;;;;;5055714;28;20504;-69
2023/02/24 06:11:50;;;;;;;2.13;1.47;;;9.50;99.90;;;;;;5041140;28;20472;-68
2023/02/24 06:14:21;;;;;;;2.00;1.80;;;9.50;99.90;;;;;;5046736;28;20505;-69
2023/02/24 06:16:49;;;;;;;1.60;1.50;;;9.50;99.90;;;;;;5042604;28;21001;-68
2023/02/24 06:19:19;;;;;;;3.30;1.40;;;9.50;99.90;;;;;;5056141;28;20464;-68
2023/02/24 06:21:48;;;;;;;2.13;1.87;;;9.50;99.90;;;;;;5044851;28;20534;-67
2023/02/24 06:24:17;;;;;;;2.60;2.40;;;9.50;99.90;;;;;;5048513;28;21181;-68
2023/02/24 06:26:48;;;;;;;3.00;1.87;;;9.50;99.90;;;;;;5062242;28;20519;-68
2023/02/24 06:29:18;;;;;;;2.60;1.60;;;9.50;99.90;;;;;;5047952;28;20790;-67
2023/02/24 06:31:48;;;;;;;2.03;1.83;;;9.50;99.90;;;;;;5043848;28;20484;-68
2023/02/24 06:34:18;;;;;;;2.73;1.70;;;9.50;99.90;;;;;;5045834;28;20473;-69
2023/02/24 06:36:47;;;;;;;3.60;2.03;;;9.40;99.90;;;;;;5048237;28;20994;-68
2023/02/24 06:39:16;;;;;;;3.57;2.30;;;9.40;99.90;;;;;;5047091;28;20487;-68
2023/02/24 06:41:44;;;;;;;1.90;1.50;;;9.50;99.90;;;;;;5047523;28;20449;-69
2023/02/24 06:44:13;;;;;;;2.17;1.50;;;9.40;99.90;;;;;;5043929;28;20535;-69
2023/02/24 06:46:41;;;;;;;3.07;2.20;;;9.40;99.90;;;;;;5044155;28;20470;-67
2023/02/24 06:49:11;;;;;;;2.90;1.83;;;9.40;99.90;;;;;;5044431;28;20999;-69
2023/02/24 06:51:42;;;;;;;2.13;1.80;;;9.40;99.90;;;;;;5047018;28;20434;-69
2023/02/24 06:54:11;;;;;;;3.70;2.07;;;9.40;99.90;;;;;;5041348;28;20512;-68
2023/02/24 06:56:40;;;;;;;1.80;1.43;;;9.40;99.90;;;;;;5046379;28;20489;-68
2023/02/24 06:59:11;;;;;;;2.03;1.77;;;9.40;99.90;;;;;;5048397;28;20520;-67
2023/02/24 07:01:44;;;;;;;2.90;2.10;;;9.40;99.90;;;;;;5045182;28;21069;-68
2023/02/24 07:04:19;;;;;;;6.23;1.67;;;9.40;99.90;;;;;;5045824;28;20479;-69
2023/02/24 07:06:51;;;;;;;2.73;1.60;;;9.40;99.90;;;;;;5039246;28;20452;-67
2023/02/24 07:09:22;;;;;;;3.37;1.90;;;9.40;99.90;;;;;;5047276;28;20583;-68
2023/02/24 07:11:54;;;;;;;1.70;1.47;;;9.40;99.90;;;;;;5048448;28;20510;-69
2023/02/24 07:14:25;;;;;;;2.90;1.40;;;9.40;99.90;;;;;;5043838;28;21475;-69
2023/02/24 07:16:53;;;;;;;5.40;2.00;;;9.40;99.90;;;;;;5047116;28;20480;-68
2023/02/24 07:19:26;;;;;;;5.60;2.20;;;9.40;99.90;;;;;;5060810;28;20484;-69
2023/02/24 07:21:58;;;;;;;2.37;1.70;;;9.40;99.90;;;;;;5043124;28;20452;-68
2023/02/24 07:24:34;;;;;;;2.50;1.80;;;9.40;99.90;;;;;;5056421;28;20888;-68
2023/02/24 07:27:05;;;;;;;1.60;1.50;;;9.40;99.90;;;;;;5062767;28;20987;-69
2023/02/24 07:29:36;;;;;;;3.33;1.97;;;9.40;99.90;;;;;;5041052;28;20452;-69
2023/02/24 07:32:07;;;;;;;1.80;1.70;;;9.40;99.90;;;;;;5065656;28;20935;-67
2023/02/24 07:34:38;;;;;;;3.10;1.50;;;9.40;99.90;;;;;;5039072;28;20449;-68
2023/02/24 07:37:09;;;;;;;3.10;2.10;;;9.40;99.90;;;;;;5045147;28;20461;-67
2023/02/24 07:39:39;;;;;;;2.30;1.33;;;9.40;99.90;;;;;;5048644;28;20502;-68
2023/02/24 07:42:12;;;;;;;2.43;1.60;;;9.40;99.90;;;;;;5045395;28;20456;-68
2023/02/24 07:44:47;;;;;;;3.80;2.30;;;9.40;99.90;;;;;;5035194;28;21414;-69
2023/02/24 07:47:16;;;;;;;2.20;1.63;;;9.40;99.90;;;;;;5047014;28;20472;-69
2023/02/24 07:49:46;;;;;;;1.57;1.47;;;9.40;99.90;;;;;;5044285;28;20447;-68
2023/02/24 07:52:14;;;;;;;3.97;2.03;;;9.40;99.90;;;;;;5040535;28;20501;-67
2023/02/24 07:54:43;;;;;;;1.80;1.43;;;9.40;99.90;;;;;;5040390;28;20436;-68
2023/02/24 07:57:12;;;;;;;2.03;1.33;;;9.30;99.90;;;;;;5045082;28;20494;-67
2023/02/24 07:59:45;;;;;;;2.70;1.80;;;9.30;99.90;;;;;;5044870;28;20443;-70
2023/02/24 08:02:15;;;;;;;2.37;1.20;;;9.30;99.90;;;;;;5047049;28;20453;-69
2023/02/24 08:04:48;;;;;;;2.17;1.77;;;9.30;99.90;;;;;;5040325;28;20440;-67
2023/02/24 08:07:22;;;;;;;4.30;1.47;;;9.30;99.90;;;;;;5044367;28;20474;-69
2023/02/24 08:10:12;;;;;;;3.97;1.83;;;9.30;99.90;;;;;;5047929;28;20456;-68
2023/02/24 08:12:42;;;;;;;3.00;1.50;;;9.30;99.90;;;;;;5045944;28;20498;-67
2023/02/24 08:15:23;;;;;;;2.00;1.77;;;9.30;99.90;;;;;;5049191;28;21203;-68
2023/02/24 08:17:53;;;;;;;3.80;1.50;;;9.30;99.90;;;;;;5046678;28;20861;-68
2023/02/24 08:20:26;;;;;;;3.37;1.93;;;9.30;99.90;;;;;;5028617;28;20968;-68
2023/02/24 08:22:56;;;;;;;2.73;1.90;;;9.30;99.90;;;;;;5047347;28;20463;-67
2023/02/24 08:25:34;;;;;;;3.07;1.97;;;9.30;99.90;;;;;;5063190;28;20448;-68
2023/02/24 08:28:06;;;;;;;3.83;2.07;;;9.30;99.90;;;;;;5063333;28;21018;-68
2023/02/24 08:30:38;;;;;;;3.23;1.47;;;9.30;99.90;;;;;;5045325;28;21324;-68
2023/02/24 08:33:10;;;;;;;2.60;1.50;;;9.30;99.90;;;;;;5062820;28;21243;-68
2023/02/24 08:35:43;;;;;;;4.60;2.20;;;9.30;99.90;;;;;;5066058;28;20468;-67
2023/02/24 08:38:19;;;;;;;3.40;1.93;;;9.30;99.90;;;;;;5041405;28;20466;-68
2023/02/24 08:40:50;;;;;;;3.17;1.70;;;9.30;99.90;;;;;;5055880;28;20787;-68
2023/02/24 08:43:31;;;;;;;3.60;1.63;;;9.30;99.90;;;;;;5064961;28;20968;-70
2023/02/24 08:46:05;;;;;;;7.33;2.13;;;9.30;99.90;;;;;;5045286;28;20483;-68
2023/02/24 08:48:37;;;;;;;2.77;1.70;;;9.30;99.90;;;;;;5032594;28;20521;-68
2023/02/24 08:51:10;;;;;;;3.97;2.37;;;9.30;99.90;;;;;;5063959;28;20803;-70
2023/02/24 08:53:40;;;;;;;7.63;1.83;;;9.30;99.90;;;;;;5047714;28;20552;-69
2023/02/24 08:56:11;;;;;;;3.20;1.67;;;9.30;99.90;;;;;;5046564;28;20457;-68
2023/02/24 08:58:45;;;;;;;6.60;1.90;;;9.30;99.90;;;;;;5043387;28;20536;-68
2023/02/24 09:01:22;;;;;;;5.03;1.70;;;9.30;99.90;;;;;;5064653;28;20515;-70
2023/02/24 09:03:55;;;;;;;3.33;1.63;;;9.30;99.90;;;;;;5040179;28;20467;-74
2023/02/24 09:06:34;;;;;;;2.67;1.50;;;9.20;99.90;;;;;;5025888;28;20468;-75
2023/02/24 09:09:21;;;;;;;2.80;1.60;;;9.30;99.90;;;;;;5042838;28;20522;-75
2023/02/24 09:11:54;;;;;;;2.73;1.30;;;9.30;99.90;;;;;;5042142;28;20523;-67
2023/02/24 09:14:26;;;;;;;2.30;1.60;;;9.30;99.90;;;;;;5042777;28;20477;-68
2023/02/24 09:17:04;;;;;;;2.33;1.80;;;9.30;99.90;;;;;;5043381;28;20571;-69
2023/02/24 09:20:22;;;;;;;2.60;1.73;;;9.30;99.90;;;;;;5030846;28;20475;-68
2023/02/24 09:22:31;;;;;;;6.23;1.80;;;9.30;99.90;;;;;;5039739;28;20452;-69
2023/02/24 09:25:20;;;;;;;4.50;1.60;;;9.30;99.90;;;;;;5047053;28;20437;-67
2023/02/24 09:27:53;;;;;;;2.60;1.30;;;9.30;99.90;;;;;;5035649;28;21057;-66
2023/02/24 09:30:49;;;;;;;4.60;1.97;;;9.30;99.90;;;;;;5047506;28;20449;-69
2023/02/24 09:33:21;;;;;;;2.63;1.50;;;9.30;99.90;;;;;;5051141;28;20909;-70
2023/02/24 09:36:01;;;;;;;2.83;1.60;;;9.30;99.90;;;;;;5057017;28;20473;-68
2023/02/24 09:41:31;;;;;;;2.33;1.47;;;9.30;99.90;;;;;;5050556;28;20993;-68
2023/02/24 09:44:06;;;;;;;3.50;2.20;;;9.20;99.90;;;;;;5045324;28;20847;-69
2023/02/24 09:46:42;;;;;;;1.50;1.40;;;9.20;99.90;;;;;;5068012;28;20459;-67
2023/02/24 09:49:29;;;;;;;3.10;2.03;;;9.20;99.90;;;;;;5050759;28;20473;-68
2023/02/24 09:52:07;;;;;;;2.30;2.10;;;9.20;99.90;;;;;;5053304;28;20435;-68
2023/02/24 09:54:36;;;;;;;3.27;1.90;;;9.20;99.90;;;;;;5051156;28;20481;-68
2023/02/24 09:57:15;;;;;;;2.27;1.70;;;9.20;99.90;;;;;;5046524;28;20487;-67
2023/02/24 09:59:59;;;;;;;2.43;1.40;;;9.20;99.90;;;;;;5056382;28;20458;-70
2023/02/24 10:02:43;;;;;;;2.90;1.60;;;9.20;99.90;;;;;;5063510;28;20449;-67
2023/02/24 10:05:26;;;;;;;1.77;1.53;;;9.20;99.90;;;;;;5048321;28;20448;-68
2023/02/24 10:07:57;;;;;;;4.57;3.17;;;9.20;99.90;;;;;;5066385;28;21041;-68
2023/02/24 10:10:28;;;;;;;3.57;2.23;;;9.20;99.90;;;;;;5044050;28;20455;-67
2023/02/24 10:13:13;;;;;;;3.27;1.67;;;9.20;99.90;;;;;;5050848;28;20477;-69
2023/02/24 10:15:57;;;;;;;3.00;1.43;;;9.20;99.90;;;;;;5070706;28;20501;-68
2023/02/24 10:18:33;;;;;;;2.10;1.67;;;9.20;99.90;;;;;;5047165;28;20550;-69
2023/02/24 10:21:14;;;;;;;3.00;2.00;;;9.20;99.90;;;;;;5049083;28;20455;-66
2023/02/24 10:24:00;;;;;;;2.90;1.93;;;9.20;99.90;;;;;;5041632;28;21162;-68
2023/02/24 10:26:43;;;;;;;3.93;2.87;;;9.20;99.90;;;;;;5041127;28;20453;-67
2023/02/24 10:29:42;;;;;;;2.20;1.70;;;9.20;99.90;;;;;;5064322;28;20476;-66
2023/02/24 10:32:22;;;;;;;2.57;2.03;;;9.20;99.90;;;;;;5022713;28;20978;-69
2023/02/24 10:34:52;;;;;;;3.43;2.10;;;9.20;99.90;;;;;;5042783;28;20464;-68
2023/02/24 10:37:22;;;;;;;1.90;1.67;;;9.20;99.90;;;;;;5044028;28;20472;-68
2023/02/24 10:39:59;;;;;;;3.83;2.20;;;9.20;99.90;;;;;;5039151;28;20540;-68
2023/02/24 10:42:33;;;;;;;1.97;1.40;;;9.20;99.90;;;;;;5059635;28;20515;-67
2023/02/24 10:45:15;;;;;;;4.47;2.53;;;9.20;99.90;;;;;;5047276;28;20445;-68
2023/02/24 10:47:55;;;;;;;3.03;2.07;;;9.10;99.90;;;;;;5042679;28;20472;-67
2023/02/24 10:50:27;;;;;;;3.20;1.87;;;9.20;99.90;;;;;;5048382;28;20444;-69
2023/02/24 10:53:33;;;;;;;2.90;1.60;;;9.10;99.90;;;;;;5044317;28;20936;-67
2023/02/24 10:59:19;;;;;;;4.23;1.90;;;9.10;99.90;;;;;;5043735;28;20554;-69
2023/02/24 11:01:59;;;;;;;1.80;1.53;;;9.10;99.90;;;;;;5044426;28;20522;-68
2023/02/24 11:04:52;;;;;;;2.00;1.80;;;9.10;99.90;;;;;;5065441;28;20501;-69
2023/02/24 11:07:24;;;;;;;5.03;1.93;;;9.10;99.90;;;;;;5036377;28;20461;-68
2023/02/24 11:10:10;;;;;;;2.53;1.50;;;9.10;99.90;;;;;;5044962;28;20440;-69
2023/02/24 11:18:31;;;;;;;2.80;2.07;;;9.10;99.90;;;;;;5043356;28;21149;-68
2023/02/24 11:21:01;;;;;;;4.20;1.90;;;9.10;99.90;;;;;;5055589;28;20621;-67
2023/02/24 11:23:34;;;;;;;4.10;2.00;;;9.10;99.90;;;;;;5064708;28;20509;-68
2023/02/24 11:26:09;;;;;;;4.63;2.60;;;9.10;99.90;;;;;;5051032;28;20454;-68
2023/02/24 11:28:54;;;;;;;2.40;1.70;;;9.10;99.90;;;;;;5042632;28;20475;-68
2023/02/24 11:31:44;;;;;;;2.97;1.93;;;9.10;99.90;;;;;;4993030;28;1124243;-68
2023/02/24 11:34:27;;;;;;;2.33;1.73;;;9.10;99.90;;;;;;5046100;28;20227;-70
2023/02/24 11:37:06;;;;;;;2.30;1.50;;;9.10;99.90;;;;;;5038002;28;20468;-68
2023/02/24 11:39:52;;;;;;;2.50;1.90;;;9.10;99.90;;;;;;5045369;28;20491;-67
2023/02/24 11:42:25;;;;;;;1.83;1.60;;;9.10;99.90;;;;;;5044128;28;20444;-68
2023/02/24 11:45:01;;;;;;;4.57;2.00;;;9.10;99.90;;;;;;5041509;28;20484;-67
2023/02/24 11:47:39;;;;;;;3.23;1.93;;;9.10;99.90;;;;;;5037986;28;20455;-68
2023/02/24 11:50:30;;;;;;;4.50;1.50;;;9.10;99.90;;;;;;5044002;28;20445;-66
2023/02/24 11:53:03;;;;;;;3.97;2.50;;;9.10;99.90;;;;;;5044115;28;20556;-68
2023/02/24 11:55:41;;;;;;;2.80;1.43;;;9.10;99.90;;;;;;5065169;28;20476;-67
2023/02/24 11:58:16;;;;;;;2.60;1.87;;;9.10;99.90;;;;;;5062383;28;20460;-68
2023/02/24 12:00:55;;;;;;;5.47;1.90;;;9.10;99.90;;;;;;5047801;28;20448;-67
2023/02/24 12:03:30;;;;;;;2.43;1.60;;;9.10;99.90;;;;;;5045573;28;21046;-68
2023/02/24 12:06:09;;;;;;;2.47;1.77;;;9.10;99.90;;;;;;5069490;28;20523;-68
2023/02/24 12:08:41;;;;;;;3.43;2.10;;;9.10;99.90;;;;;;5059790;28;20564;-68
2023/02/24 12:11:17;;;;;;;2.60;1.80;;;9.10;99.90;;;;;;5057468;28;20487;-69
2023/02/24 12:13:53;;;;;;;2.90;1.40;;;9.10;99.90;;;;;;5036750;28;20899;-67
2023/02/24 12:16:25;;;;;;;2.33;1.60;;;9.10;99.90;;;;;;5047761;28;20475;-68
2023/02/24 12:19:00;;;;;;;2.70;1.43;;;9.00;99.90;;;;;;5044265;28;20491;-70
2023/02/24 12:21:34;;;;;;;6.70;2.10;;;9.10;99.90;;;;;;5044793;28;20448;-67
2023/02/24 12:24:04;;;;;;;3.70;2.27;;;9.00;99.90;;;;;;5056471;28;20480;-68
2023/02/24 12:26:46;;;;;;;2.60;2.20;;;9.00;99.90;;;;;;5041154;28;20461;-68
2023/02/24 12:29:42;;;;;;;3.73;2.73;;;9.10;99.90;;;;;;5053580;28;20511;-68
2023/02/24 12:32:23;;;;;;;6.70;2.17;;;9.00;99.90;;;;;;5053327;28;20456;-69
2023/02/24 12:35:06;;;;;;;2.50;2.10;;;9.00;99.90;;;;;;5038366;28;20460;-69
2023/02/24 12:37:49;;;;;;;4.00;1.83;;;9.00;99.90;;;;;;5040256;28;20473;-66
2023/02/24 12:40:29;;;;;;;9.60;3.40;;;9.00;99.90;;;;;;5042534;28;20476;-67
2023/02/24 12:43:08;;;;;;;6.03;5.20;;;9.00;99.90;;;;;;5039519;28;20812;-68
2023/02/24 12:45:46;;;;;;;5.50;3.83;;;9.00;99.90;;;;;;5043911;28;21053;-68
2023/02/24 12:48:32;;;;;;;9.20;3.30;;;9.00;99.90;;;;;;5060326;28;21132;-70
2023/02/24 12:51:05;;;;;;;5.30;3.63;;;9.00;99.90;;;;;;5044403;28;20441;-68
2023/02/24 12:53:43;;;;;;;6.10;3.03;;;9.00;99.90;;;;;;5045576;28;20473;-67
2023/02/24 12:56:20;;;;;;;3.57;2.50;;;9.00;99.90;;;;;;5046601;28;20481;-68
2023/02/24 12:58:50;;;;;;;3.37;2.90;;;9.00;99.90;;;;;;5053721;28;20507;-66
2023/02/24 13:01:28;;;;;;;3.50;2.13;;;9.00;99.90;;;;;;5043076;28;20817;-68
2023/02/24 13:04:15;;;;;;;3.70;2.60;;;9.00;99.90;;;;;;5044725;28;20479;-71
2023/02/24 13:07:08;;;;;;;3.60;2.47;;;9.00;99.90;;;;;;5044857;28;20452;-68
2023/02/24 13:09:47;;;;;;;6.90;2.40;;;9.00;99.90;;;;;;5046785;28;20566;-69
2023/02/24 13:12:21;;;;;;;3.17;2.23;;;9.00;99.90;;;;;;5065291;28;20432;-68
2023/02/24 13:14:50;;;;;;;3.20;2.40;;;9.00;99.90;;;;;;5047624;28;20445;-69
2023/02/24 13:17:22;;;;;;;6.07;2.60;;;9.00;99.90;;;;;;5059479;28;20549;-74
2023/02/24 13:19:52;;;;;;;3.30;2.00;;;9.00;99.90;;;;;;5045195;28;20459;-76
2023/02/24 13:22:24;;;;;;;4.23;2.30;;;9.00;99.90;;;;;;5043020;28;20452;-70
2023/02/24 13:25:01;;;;;;;2.93;2.50;;;9.00;99.90;;;;;;5064770;28;20440;-68
2023/02/24 13:27:33;;;;;;;5.40;2.77;;;9.00;99.90;;;;;;5044448;28;20907;-68
2023/02/24 13:30:07;;;;;;;2.47;2.20;;;9.00;99.90;;;;;;5059914;28;20950;-69
2023/02/24 13:32:38;;;;;;;2.17;1.90;;;9.00;99.90;;;;;;5064159;28;20439;-68
2023/02/24 13:35:32;;;;;;;2.87;2.00;;;9.00;99.90;;;;;;5050908;28;21006;-68
2023/02/24 13:38:24;;;;;;;2.27;2.07;;;9.00;99.90;;;;;;5059748;28;20503;-67
2023/02/24 13:40:54;;;;;;;3.07;2.10;;;9.00;99.90;;;;;;5038523;28;20499;-70
2023/02/24 13:43:26;;;;;;;2.87;2.60;;;9.00;99.90;;;;;;5061549;28;20871;-68
2023/02/24 13:45:58;;;;;;;3.33;2.00;;;9.00;99.90;;;;;;5047171;28;20842;-68
2023/02/24 13:48:50;;;;;;;2.23;2.10;;;9.00;99.90;;;;;;5062285;28;20509;-67
2023/02/24 13:51:46;;;;;;;5.20;2.80;;;9.00;99.90;;;;;;5047240;28;20446;-67